sensor_id;sensor_type;location;lat;lon;timestamp;temperature;humidity
19732;DHT22;10017;54.350;18.532;2022-07-06T00:00:10;13.40;99.90
19732;DHT22;10017;54.350;18.532;2022-07-06T00:02:42;13.40;99.90
19732;DHT22;10017;54.350;18.532;2022-07-06T00:05:14;13.40;99.90
19732;DHT22;10017;54.350;18.532;2022-07-06T00:07:46;13.50;99.90
19732;DHT22;10017;54.350;18.532;2022-07-06T00:10:18;13.50;99.90
19732;DHT22;10017;54.350;18.532;2022-07-06T00:12:53;13.50;99.90
19732;DHT22;10017;54.350;18.532;2022-07-06T00:15:26;13.50;99.90
19732;DHT22;10017;54.350;18.532;2022-07-06T00:18:00;13.50;99.90
19732;DHT22;10017;54.350;18.532;2022-07-06T00:20:35;13.50;99.90
19732;DHT22;10017;54.350;18.532;2022-07-06T00:23:07;13.40;99.90
19732;DHT22;10017;54.350;18.532;2022-07-06T00:25:39;13.40;99.90
19732;DHT22;10017;54.350;18.532;2022-07-06T00:28:11;13.40;99.90
19732;DHT22;10017;54.350;18.532;2022-07-06T00:30:43;13.40;99.90
19732;DHT22;10017;54.350;18.532;2022-07-06T00:33:15;13.30;99.90
19732;DHT22;10017;54.350;18.532;2022-07-06T00:35:48;13.30;99.90
19732;DHT22;10017;54.350;18.532;2022-07-06T00:38:20;13.20;99.90
19732;DHT22;10017;54.350;18.532;2022-07-06T00:40:53;13.20;99.90
19732;DHT22;10017;54.350;18.532;2022-07-06T00:43:25;13.20;99.90
19732;DHT22;10017;54.350;18.532;2022-07-06T00:45:57;13.10;99.90
19732;DHT22;10017;54.350;18.532;2022-07-06T00:48:31;13.10;99.90
19732;DHT22;10017;54.350;18.532;2022-07-06T00:51:03;13.10;99.90
19732;DHT22;10017;54.350;18.532;2022-07-06T00:53:36;13.10;99.90
19732;DHT22;10017;54.350;18.532;2022-07-06T00:56:08;13.00;99.90
19732;DHT22;10017;54.350;18.532;2022-07-06T00:58:42;13.00;99.90
19732;DHT22;10017;54.350;18.532;2022-07-06T01:01:14;12.90;99.90
19732;DHT22;10017;54.350;18.532;2022-07-06T01:03:49;12.90;99.90
19732;DHT22;10017;54.350;18.532;2022-07-06T01:06:24;12.80;99.90
19732;DHT22;10017;54.350;18.532;2022-07-06T01:08:56;12.80;99.90
19732;DHT22;10017;54.350;18.532;2022-07-06T01:11:29;12.80;99.90
19732;DHT22;10017;54.350;18.532;2022-07-06T01:14:01;12.80;99.90
19732;DHT22;10017;54.350;18.532;2022-07-06T01:16:33;12.80;99.90
19732;DHT22;10017;54.350;18.532;2022-07-06T01:19:06;12.70;99.90
19732;DHT22;10017;54.350;18.532;2022-07-06T01:21:38;12.80;99.90
19732;DHT22;10017;54.350;18.532;2022-07-06T01:24:10;12.80;99.90
19732;DHT22;10017;54.350;18.532;2022-07-06T01:26:43;12.80;99.90
19732;DHT22;10017;54.350;18.532;2022-07-06T01:29:18;12.80;99.90
19732;DHT22;10017;54.350;18.532;2022-07-06T01:31:51;12.80;99.90
19732;DHT22;10017;54.350;18.532;2022-07-06T01:34:25;12.80;99.90
19732;DHT22;10017;54.350;18.532;2022-07-06T01:36:57;12.80;99.90
19732;DHT22;10017;54.350;18.532;2022-07-06T01:39:31;12.80;99.90
19732;DHT22;10017;54.350;18.532;2022-07-06T01:42:04;12.70;99.90
19732;DHT22;10017;54.350;18.532;2022-07-06T01:44:39;12.80;99.90
19732;DHT22;10017;54.350;18.532;2022-07-06T01:47:11;12.70;99.90
19732;DHT22;10017;54.350;18.532;2022-07-06T01:49:46;12.70;99.90
19732;DHT22;10017;54.350;18.532;2022-07-06T01:52:18;12.70;99.90
19732;DHT22;10017;54.350;18.532;2022-07-06T01:54:50;12.70;99.90
19732;DHT22;10017;54.350;18.532;2022-07-06T01:57:22;12.70;99.90
19732;DHT22;10017;54.350;18.532;2022-07-06T01:59:54;12.70;99.90
19732;DHT22;10017;54.350;18.532;2022-07-06T02:02:27;12.70;99.90
19732;DHT22;10017;54.350;18.532;2022-07-06T02:05:01;12.70;99.90
19732;DHT22;10017;54.350;18.532;2022-07-06T02:07:33;12.60;99.90
19732;DHT22;10017;54.350;18.532;2022-07-06T02:10:08;12.60;99.90
19732;DHT22;10017;54.350;18.532;2022-07-06T02:12:43;12.60;99.90
19732;DHT22;10017;54.350;18.532;2022-07-06T02:15:14;12.60;99.90
19732;DHT22;10017;54.350;18.532;2022-07-06T02:17:47;12.60;99.90
19732;DHT22;10017;54.350;18.532;2022-07-06T02:20:20;12.60;99.90
19732;DHT22;10017;54.350;18.532;2022-07-06T02:22:52;12.60;99.90
19732;DHT22;10017;54.350;18.532;2022-07-06T02:25:24;12.60;99.90
19732;DHT22;10017;54.350;18.532;2022-07-06T02:27:58;12.60;99.90
19732;DHT22;10017;54.350;18.532;2022-07-06T02:30:30;12.70;99.90
19732;DHT22;10017;54.350;18.532;2022-07-06T02:33:04;12.70;99.90
19732;DHT22;10017;54.350;18.532;2022-07-06T02:35:36;12.70;99.90
19732;DHT22;10017;54.350;18.532;2022-07-06T02:38:13;12.70;99.90
19732;DHT22;10017;54.350;18.532;2022-07-06T02:40:45;12.70;99.90
19732;DHT22;10017;54.350;18.532;2022-07-06T02:43:17;12.70;99.90
19732;DHT22;10017;54.350;18.532;2022-07-06T02:45:54;12.70;99.90
19732;DHT22;10017;54.350;18.532;2022-07-06T02:48:26;12.70;99.90
19732;DHT22;10017;54.350;18.532;2022-07-06T02:50:58;12.70;99.90
19732;DHT22;10017;54.350;18.532;2022-07-06T02:53:30;12.70;99.90
19732;DHT22;10017;54.350;18.532;2022-07-06T02:56:03;12.70;99.90
19732;DHT22;10017;54.350;18.532;2022-07-06T02:58:35;12.70;99.90
19732;DHT22;10017;54.350;18.532;2022-07-06T03:01:07;12.70;99.90
19732;DHT22;10017;54.350;18.532;2022-07-06T03:03:41;12.80;99.90
19732;DHT22;10017;54.350;18.532;2022-07-06T03:06:13;12.80;99.90
19732;DHT22;10017;54.350;18.532;2022-07-06T03:08:45;12.80;99.90
19732;DHT22;10017;54.350;18.532;2022-07-06T03:11:17;12.80;99.90
19732;DHT22;10017;54.350;18.532;2022-07-06T03:13:50;12.80;99.90
19732;DHT22;10017;54.350;18.532;2022-07-06T03:16:22;12.90;99.90
19732;DHT22;10017;54.350;18.532;2022-07-06T03:18:54;12.90;99.90
19732;DHT22;10017;54.350;18.532;2022-07-06T03:21:26;12.90;99.90
19732;DHT22;10017;54.350;18.532;2022-07-06T03:23:58;12.90;99.90
19732;DHT22;10017;54.350;18.532;2022-07-06T03:26:30;12.90;99.90
19732;DHT22;10017;54.350;18.532;2022-07-06T03:29:02;12.90;99.90
19732;DHT22;10017;54.350;18.532;2022-07-06T03:31:34;12.90;99.90
19732;DHT22;10017;54.350;18.532;2022-07-06T03:34:07;12.90;99.90
19732;DHT22;10017;54.350;18.532;2022-07-06T03:36:39;13.00;99.90
19732;DHT22;10017;54.350;18.532;2022-07-06T03:39:13;13.10;99.90
19732;DHT22;10017;54.350;18.532;2022-07-06T03:41:45;13.20;99.90
19732;DHT22;10017;54.350;18.532;2022-07-06T03:44:17;13.20;99.90
19732;DHT22;10017;54.350;18.532;2022-07-06T03:46:51;13.30;99.90
19732;DHT22;10017;54.350;18.532;2022-07-06T03:49:25;13.40;99.90
19732;DHT22;10017;54.350;18.532;2022-07-06T03:51:59;13.60;99.90
19732;DHT22;10017;54.350;18.532;2022-07-06T03:54:31;13.60;99.90
19732;DHT22;10017;54.350;18.532;2022-07-06T03:57:03;13.70;99.90
19732;DHT22;10017;54.350;18.532;2022-07-06T03:59:35;13.80;99.90
19732;DHT22;10017;54.350;18.532;2022-07-06T04:02:07;13.90;99.90
19732;DHT22;10017;54.350;18.532;2022-07-06T04:04:40;13.90;99.90
19732;DHT22;10017;54.350;18.532;2022-07-06T04:07:12;13.90;99.90
19732;DHT22;10017;54.350;18.532;2022-07-06T04:09:45;14.00;99.90
19732;DHT22;10017;54.350;18.532;2022-07-06T04:12:19;14.10;99.90
19732;DHT22;10017;54.350;18.532;2022-07-06T04:14:56;14.10;99.90
19732;DHT22;10017;54.350;18.532;2022-07-06T04:17:28;14.20;99.90
19732;DHT22;10017;54.350;18.532;2022-07-06T04:20:20;14.20;99.90
19732;DHT22;10017;54.350;18.532;2022-07-06T04:22:52;14.30;99.90
19732;DHT22;10017;54.350;18.532;2022-07-06T04:25:24;14.40;99.90
19732;DHT22;10017;54.350;18.532;2022-07-06T04:27:56;14.40;99.90
19732;DHT22;10017;54.350;18.532;2022-07-06T04:30:29;14.50;99.90
19732;DHT22;10017;54.350;18.532;2022-07-06T04:33:01;14.60;99.90
19732;DHT22;10017;54.350;18.532;2022-07-06T04:35:33;14.70;99.90
19732;DHT22;10017;54.350;18.532;2022-07-06T04:38:05;14.80;99.90
19732;DHT22;10017;54.350;18.532;2022-07-06T04:40:37;14.90;99.90
19732;DHT22;10017;54.350;18.532;2022-07-06T04:43:10;14.90;99.90
19732;DHT22;10017;54.350;18.532;2022-07-06T04:45:42;14.90;99.90
19732;DHT22;10017;54.350;18.532;2022-07-06T04:48:14;14.90;99.90
19732;DHT22;10017;54.350;18.532;2022-07-06T04:50:49;14.90;99.90
19732;DHT22;10017;54.350;18.532;2022-07-06T04:53:21;14.90;99.90
19732;DHT22;10017;54.350;18.532;2022-07-06T04:55:53;14.90;99.90
19732;DHT22;10017;54.350;18.532;2022-07-06T04:58:25;14.90;99.90
19732;DHT22;10017;54.350;18.532;2022-07-06T05:00:57;14.90;99.90
19732;DHT22;10017;54.350;18.532;2022-07-06T05:03:29;15.00;99.90
19732;DHT22;10017;54.350;18.532;2022-07-06T05:06:01;15.10;99.90
19732;DHT22;10017;54.350;18.532;2022-07-06T05:08:39;15.20;99.90
19732;DHT22;10017;54.350;18.532;2022-07-06T05:11:11;15.40;99.90
19732;DHT22;10017;54.350;18.532;2022-07-06T05:13:43;15.60;99.90
19732;DHT22;10017;54.350;18.532;2022-07-06T05:16:15;15.70;99.90
19732;DHT22;10017;54.350;18.532;2022-07-06T05:18:48;15.90;99.90
19732;DHT22;10017;54.350;18.532;2022-07-06T05:21:24;16.00;99.90
19732;DHT22;10017;54.350;18.532;2022-07-06T05:23:56;16.10;99.90
19732;DHT22;10017;54.350;18.532;2022-07-06T05:26:28;16.20;99.90
19732;DHT22;10017;54.350;18.532;2022-07-06T05:29:00;16.30;99.90
19732;DHT22;10017;54.350;18.532;2022-07-06T05:31:35;16.40;99.90
19732;DHT22;10017;54.350;18.532;2022-07-06T05:34:07;16.50;99.90
19732;DHT22;10017;54.350;18.532;2022-07-06T05:36:39;16.60;99.90
19732;DHT22;10017;54.350;18.532;2022-07-06T05:39:11;16.70;99.90
19732;DHT22;10017;54.350;18.532;2022-07-06T05:41:43;16.80;99.90
19732;DHT22;10017;54.350;18.532;2022-07-06T05:44:15;16.90;99.90
19732;DHT22;10017;54.350;18.532;2022-07-06T05:46:50;17.30;99.90
19732;DHT22;10017;54.350;18.532;2022-07-06T05:49:25;19.00;49.50
19732;DHT22;10017;54.350;18.532;2022-07-06T05:52:16;21.10;1.00
19732;DHT22;10017;54.350;18.532;2022-07-06T05:54:48;23.30;1.00
19732;DHT22;10017;54.350;18.532;2022-07-06T05:57:20;24.70;1.00
19732;DHT22;10017;54.350;18.532;2022-07-06T05:59:57;25.10;99.90
19732;DHT22;10017;54.350;18.532;2022-07-06T06:02:42;24.80;99.90
19732;DHT22;10017;54.350;18.532;2022-07-06T06:05:15;25.10;99.90
19732;DHT22;10017;54.350;18.532;2022-07-06T06:07:55;26.30;99.90
19732;DHT22;10017;54.350;18.532;2022-07-06T06:10:27;27.00;99.90
19732;DHT22;10017;54.350;18.532;2022-07-06T06:12:59;27.70;99.90
19732;DHT22;10017;54.350;18.532;2022-07-06T06:15:31;28.20;99.90
19732;DHT22;10017;54.350;18.532;2022-07-06T06:18:06;29.10;99.90
19732;DHT22;10017;54.350;18.532;2022-07-06T06:20:38;30.00;99.90
19732;DHT22;10017;54.350;18.532;2022-07-06T06:23:10;30.30;99.90
19732;DHT22;10017;54.350;18.532;2022-07-06T06:25:42;30.10;99.90
19732;DHT22;10017;54.350;18.532;2022-07-06T06:28:14;29.80;99.90
19732;DHT22;10017;54.350;18.532;2022-07-06T06:30:46;29.70;99.90
19732;DHT22;10017;54.350;18.532;2022-07-06T06:33:20;30.70;99.30
19732;DHT22;10017;54.350;18.532;2022-07-06T06:35:53;31.30;97.90
19732;DHT22;10017;54.350;18.532;2022-07-06T06:38:25;31.50;96.20
19732;DHT22;10017;54.350;18.532;2022-07-06T06:41:00;30.80;96.20
19732;DHT22;10017;54.350;18.532;2022-07-06T06:43:33;30.40;96.70
19732;DHT22;10017;54.350;18.532;2022-07-06T06:46:05;30.30;95.80
19732;DHT22;10017;54.350;18.532;2022-07-06T06:48:37;30.90;95.60
19732;DHT22;10017;54.350;18.532;2022-07-06T06:51:12;30.70;94.40
19732;DHT22;10017;54.350;18.532;2022-07-06T06:53:44;30.40;95.00
19732;DHT22;10017;54.350;18.532;2022-07-06T06:56:16;29.00;95.80
19732;DHT22;10017;54.350;18.532;2022-07-06T06:58:48;29.10;96.10
19732;DHT22;10017;54.350;18.532;2022-07-06T07:01:40;29.60;95.50
19732;DHT22;10017;54.350;18.532;2022-07-06T07:04:15;30.10;94.40
19732;DHT22;10017;54.350;18.532;2022-07-06T07:06:49;29.40;94.60
19732;DHT22;10017;54.350;18.532;2022-07-06T07:09:21;27.90;95.20
19732;DHT22;10017;54.350;18.532;2022-07-06T07:11:53;26.90;95.00
19732;DHT22;10017;54.350;18.532;2022-07-06T07:14:26;26.80;96.20
19732;DHT22;10017;54.350;18.532;2022-07-06T07:16:59;27.40;96.30
19732;DHT22;10017;54.350;18.532;2022-07-06T07:19:31;28.20;96.00
19732;DHT22;10017;54.350;18.532;2022-07-06T07:22:03;28.60;95.70
19732;DHT22;10017;54.350;18.532;2022-07-06T07:24:35;28.10;95.90
19732;DHT22;10017;54.350;18.532;2022-07-06T07:27:09;28.00;95.70
19732;DHT22;10017;54.350;18.532;2022-07-06T07:29:41;27.50;95.80
19732;DHT22;10017;54.350;18.532;2022-07-06T07:32:13;27.30;95.80
19732;DHT22;10017;54.350;18.532;2022-07-06T07:34:45;27.00;95.50
19732;DHT22;10017;54.350;18.532;2022-07-06T07:37:17;26.90;94.60
19732;DHT22;10017;54.350;18.532;2022-07-06T07:39:49;26.80;95.10
19732;DHT22;10017;54.350;18.532;2022-07-06T07:42:21;26.10;95.00
19732;DHT22;10017;54.350;18.532;2022-07-06T07:44:55;25.90;95.70
19732;DHT22;10017;54.350;18.532;2022-07-06T07:47:27;26.10;95.10
19732;DHT22;10017;54.350;18.532;2022-07-06T07:50:02;25.90;95.50
19732;DHT22;10017;54.350;18.532;2022-07-06T07:52:34;25.70;94.40
19732;DHT22;10017;54.350;18.532;2022-07-06T07:55:09;25.70;94.90
19732;DHT22;10017;54.350;18.532;2022-07-06T07:58:03;25.50;94.60
19732;DHT22;10017;54.350;18.532;2022-07-06T08:00:38;25.00;95.40
19732;DHT22;10017;54.350;18.532;2022-07-06T08:03:11;24.50;95.20
19732;DHT22;10017;54.350;18.532;2022-07-06T08:05:43;24.50;94.80
19732;DHT22;10017;54.350;18.532;2022-07-06T08:08:15;24.30;94.50
19732;DHT22;10017;54.350;18.532;2022-07-06T08:10:47;24.00;95.70
19732;DHT22;10017;54.350;18.532;2022-07-06T08:13:40;23.80;95.80
19732;DHT22;10017;54.350;18.532;2022-07-06T08:16:12;23.20;95.60
19732;DHT22;10017;54.350;18.532;2022-07-06T08:18:45;23.00;96.90
19732;DHT22;10017;54.350;18.532;2022-07-06T08:21:17;23.10;96.40
19732;DHT22;10017;54.350;18.532;2022-07-06T08:23:58;23.00;96.80
19732;DHT22;10017;54.350;18.532;2022-07-06T08:26:32;23.00;96.90
19732;DHT22;10017;54.350;18.532;2022-07-06T08:29:04;22.60;96.00
19732;DHT22;10017;54.350;18.532;2022-07-06T08:31:36;22.30;96.50
19732;DHT22;10017;54.350;18.532;2022-07-06T08:34:28;22.00;96.80
19732;DHT22;10017;54.350;18.532;2022-07-06T08:37:04;21.90;97.20
19732;DHT22;10017;54.350;18.532;2022-07-06T08:39:36;22.20;96.70
19732;DHT22;10017;54.350;18.532;2022-07-06T08:42:12;22.20;95.90
19732;DHT22;10017;54.350;18.532;2022-07-06T08:44:50;22.40;96.70
19732;DHT22;10017;54.350;18.532;2022-07-06T08:47:25;22.90;96.30
19732;DHT22;10017;54.350;18.532;2022-07-06T08:49:58;23.30;96.00
19732;DHT22;10017;54.350;18.532;2022-07-06T08:52:30;23.30;95.60
19732;DHT22;10017;54.350;18.532;2022-07-06T08:55:03;23.20;95.80
19732;DHT22;10017;54.350;18.532;2022-07-06T08:57:37;22.60;96.50
19732;DHT22;10017;54.350;18.532;2022-07-06T09:00:13;21.70;97.30
19732;DHT22;10017;54.350;18.532;2022-07-06T09:02:45;20.60;99.90
19732;DHT22;10017;54.350;18.532;2022-07-06T09:05:18;20.20;1.00
19732;DHT22;10017;54.350;18.532;2022-07-06T09:07:55;19.80;1.00
19732;DHT22;10017;54.350;18.532;2022-07-06T09:10:30;19.50;1.00
19732;DHT22;10017;54.350;18.532;2022-07-06T09:13:07;19.30;1.00
19732;DHT22;10017;54.350;18.532;2022-07-06T09:15:39;19.10;1.00
19732;DHT22;10017;54.350;18.532;2022-07-06T09:18:11;19.10;1.00
19732;DHT22;10017;54.350;18.532;2022-07-06T09:20:43;19.10;1.00
19732;DHT22;10017;54.350;18.532;2022-07-06T09:23:19;19.10;1.00
19732;DHT22;10017;54.350;18.532;2022-07-06T09:25:55;19.10;1.00
19732;DHT22;10017;54.350;18.532;2022-07-06T09:28:41;19.20;1.00
19732;DHT22;10017;54.350;18.532;2022-07-06T09:31:16;19.20;1.00
19732;DHT22;10017;54.350;18.532;2022-07-06T09:34:08;19.60;1.00
19732;DHT22;10017;54.350;18.532;2022-07-06T09:36:47;20.10;1.00
19732;DHT22;10017;54.350;18.532;2022-07-06T09:41:54;20.40;1.00
19732;DHT22;10017;54.350;18.532;2022-07-06T09:44:28;20.30;1.00
19732;DHT22;10017;54.350;18.532;2022-07-06T09:47:08;20.70;1.00
19732;DHT22;10017;54.350;18.532;2022-07-06T09:49:41;21.10;99.90
19732;DHT22;10017;54.350;18.532;2022-07-06T09:52:13;21.30;1.00
19732;DHT22;10017;54.350;18.532;2022-07-06T09:54:48;21.50;1.60
19732;DHT22;10017;54.350;18.532;2022-07-06T09:57:21;21.70;1.00
19732;DHT22;10017;54.350;18.532;2022-07-06T09:59:53;21.70;1.00
19732;DHT22;10017;54.350;18.532;2022-07-06T10:02:29;21.80;1.00
19732;DHT22;10017;54.350;18.532;2022-07-06T10:05:01;21.80;1.00
19732;DHT22;10017;54.350;18.532;2022-07-06T10:07:36;21.40;1.00
19732;DHT22;10017;54.350;18.532;2022-07-06T10:10:10;21.40;1.00
19732;DHT22;10017;54.350;18.532;2022-07-06T10:12:47;21.40;1.00
19732;DHT22;10017;54.350;18.532;2022-07-06T10:15:22;21.30;1.00
19732;DHT22;10017;54.350;18.532;2022-07-06T10:17:55;21.10;74.80
19732;DHT22;10017;54.350;18.532;2022-07-06T10:20:32;21.30;68.00
19732;DHT22;10017;54.350;18.532;2022-07-06T10:23:06;21.40;1.00
19732;DHT22;10017;54.350;18.532;2022-07-06T10:25:39;21.70;1.00
19732;DHT22;10017;54.350;18.532;2022-07-06T10:28:11;22.00;1.00
19732;DHT22;10017;54.350;18.532;2022-07-06T10:30:49;22.00;1.00
19732;DHT22;10017;54.350;18.532;2022-07-06T10:33:25;22.20;1.00
19732;DHT22;10017;54.350;18.532;2022-07-06T10:36:02;21.90;1.00
19732;DHT22;10017;54.350;18.532;2022-07-06T10:38:39;21.50;1.00
19732;DHT22;10017;54.350;18.532;2022-07-06T10:41:11;21.30;99.90
19732;DHT22;10017;54.350;18.532;2022-07-06T10:43:46;21.00;1.00
19732;DHT22;10017;54.350;18.532;2022-07-06T10:46:18;20.50;1.00
19732;DHT22;10017;54.350;18.532;2022-07-06T10:48:54;19.90;1.00
19732;DHT22;10017;54.350;18.532;2022-07-06T10:51:33;19.60;1.00
19732;DHT22;10017;54.350;18.532;2022-07-06T10:54:05;19.50;1.00
19732;DHT22;10017;54.350;18.532;2022-07-06T10:56:49;19.60;1.00
19732;DHT22;10017;54.350;18.532;2022-07-06T10:59:23;19.90;1.00
19732;DHT22;10017;54.350;18.532;2022-07-06T11:02:17;19.90;1.00
19732;DHT22;10017;54.350;18.532;2022-07-06T11:04:51;19.80;1.00
19732;DHT22;10017;54.350;18.532;2022-07-06T11:07:23;19.90;1.00
19732;DHT22;10017;54.350;18.532;2022-07-06T11:10:04;19.80;1.00
19732;DHT22;10017;54.350;18.532;2022-07-06T11:12:36;19.50;1.00
19732;DHT22;10017;54.350;18.532;2022-07-06T11:15:08;19.50;1.00
19732;DHT22;10017;54.350;18.532;2022-07-06T11:17:44;19.80;1.00
19732;DHT22;10017;54.350;18.532;2022-07-06T11:20:37;19.80;1.00
19732;DHT22;10017;54.350;18.532;2022-07-06T11:23:12;19.70;1.00
19732;DHT22;10017;54.350;18.532;2022-07-06T11:25:44;19.80;1.00
19732;DHT22;10017;54.350;18.532;2022-07-06T11:28:18;19.80;1.00
19732;DHT22;10017;54.350;18.532;2022-07-06T11:30:50;19.50;1.00
19732;DHT22;10017;54.350;18.532;2022-07-06T11:33:30;19.40;1.00
19732;DHT22;10017;54.350;18.532;2022-07-06T11:36:22;19.40;1.00
19732;DHT22;10017;54.350;18.532;2022-07-06T11:38:53;19.30;1.00
19732;DHT22;10017;54.350;18.532;2022-07-06T11:41:25;19.30;1.00
19732;DHT22;10017;54.350;18.532;2022-07-06T11:43:57;19.50;1.00
19732;DHT22;10017;54.350;18.532;2022-07-06T11:46:31;19.90;1.00
19732;DHT22;10017;54.350;18.532;2022-07-06T11:49:08;20.10;1.00
19732;DHT22;10017;54.350;18.532;2022-07-06T11:51:41;20.40;1.00
19732;DHT22;10017;54.350;18.532;2022-07-06T11:54:18;20.60;1.00
19732;DHT22;10017;54.350;18.532;2022-07-06T11:56:57;20.80;1.00
19732;DHT22;10017;54.350;18.532;2022-07-06T11:59:34;21.10;1.00
19732;DHT22;10017;54.350;18.532;2022-07-06T12:04:41;21.00;1.00
19732;DHT22;10017;54.350;18.532;2022-07-06T12:07:16;21.00;1.00
19732;DHT22;10017;54.350;18.532;2022-07-06T12:09:48;20.80;1.00
19732;DHT22;10017;54.350;18.532;2022-07-06T12:12:20;20.70;1.00
19732;DHT22;10017;54.350;18.532;2022-07-06T12:14:53;20.90;1.00
19732;DHT22;10017;54.350;18.532;2022-07-06T12:17:25;21.00;1.00
19732;DHT22;10017;54.350;18.532;2022-07-06T12:20:00;21.00;1.00
19732;DHT22;10017;54.350;18.532;2022-07-06T12:22:32;20.90;1.00
19732;DHT22;10017;54.350;18.532;2022-07-06T12:25:04;20.80;1.00
19732;DHT22;10017;54.350;18.532;2022-07-06T12:27:37;20.80;1.00
19732;DHT22;10017;54.350;18.532;2022-07-06T12:30:11;20.90;1.00
19732;DHT22;10017;54.350;18.532;2022-07-06T12:32:43;20.70;1.00
19732;DHT22;10017;54.350;18.532;2022-07-06T12:35:16;20.70;1.00
19732;DHT22;10017;54.350;18.532;2022-07-06T12:37:55;20.60;1.00
19732;DHT22;10017;54.350;18.532;2022-07-06T12:40:29;20.50;1.00
19732;DHT22;10017;54.350;18.532;2022-07-06T12:43:01;20.50;1.00
19732;DHT22;10017;54.350;18.532;2022-07-06T12:45:33;20.40;1.00
19732;DHT22;10017;54.350;18.532;2022-07-06T12:48:06;20.20;1.00
19732;DHT22;10017;54.350;18.532;2022-07-06T12:50:38;19.90;1.00
19732;DHT22;10017;54.350;18.532;2022-07-06T12:53:25;19.50;1.00
19732;DHT22;10017;54.350;18.532;2022-07-06T12:56:11;19.20;7.70
19732;DHT22;10017;54.350;18.532;2022-07-06T12:59:00;18.90;26.40
19732;DHT22;10017;54.350;18.532;2022-07-06T13:01:32;18.80;16.50
19732;DHT22;10017;54.350;18.532;2022-07-06T13:04:07;18.80;1.00
19732;DHT22;10017;54.350;18.532;2022-07-06T13:06:39;18.70;1.00
19732;DHT22;10017;54.350;18.532;2022-07-06T13:09:11;18.70;1.00
19732;DHT22;10017;54.350;18.532;2022-07-06T13:11:46;18.90;1.00
19732;DHT22;10017;54.350;18.532;2022-07-06T13:14:19;18.90;1.00
19732;DHT22;10017;54.350;18.532;2022-07-06T13:16:51;19.10;1.00
19732;DHT22;10017;54.350;18.532;2022-07-06T13:19:25;19.30;1.00
19732;DHT22;10017;54.350;18.532;2022-07-06T13:21:57;19.30;1.00
19732;DHT22;10017;54.350;18.532;2022-07-06T13:24:32;19.40;1.00
19732;DHT22;10017;54.350;18.532;2022-07-06T13:27:10;19.30;1.00
19732;DHT22;10017;54.350;18.532;2022-07-06T13:29:43;18.80;1.00
19732;DHT22;10017;54.350;18.532;2022-07-06T13:32:17;18.30;3.10
19732;DHT22;10017;54.350;18.532;2022-07-06T13:34:52;17.90;28.90
19732;DHT22;10017;54.350;18.532;2022-07-06T13:37:24;17.60;79.00
19732;DHT22;10017;54.350;18.532;2022-07-06T13:39:58;17.30;91.40
19732;DHT22;10017;54.350;18.532;2022-07-06T13:42:33;17.20;99.90
19732;DHT22;10017;54.350;18.532;2022-07-06T13:45:05;17.00;99.90
19732;DHT22;10017;54.350;18.532;2022-07-06T13:47:38;17.00;99.90
19732;DHT22;10017;54.350;18.532;2022-07-06T13:50:10;16.90;99.90
19732;DHT22;10017;54.350;18.532;2022-07-06T13:52:42;16.90;99.90
19732;DHT22;10017;54.350;18.532;2022-07-06T13:55:14;17.00;99.90
19732;DHT22;10017;54.350;18.532;2022-07-06T13:57:46;17.10;99.90
19732;DHT22;10017;54.350;18.532;2022-07-06T14:00:19;17.20;99.90
19732;DHT22;10017;54.350;18.532;2022-07-06T14:02:54;17.30;99.90
19732;DHT22;10017;54.350;18.532;2022-07-06T14:05:29;17.50;99.90
19732;DHT22;10017;54.350;18.532;2022-07-06T14:08:01;17.60;99.90
19732;DHT22;10017;54.350;18.532;2022-07-06T14:10:33;17.80;99.90
19732;DHT22;10017;54.350;18.532;2022-07-06T14:13:05;18.20;99.90
19732;DHT22;10017;54.350;18.532;2022-07-06T14:15:37;18.50;99.90
19732;DHT22;10017;54.350;18.532;2022-07-06T14:18:12;18.70;97.70
19732;DHT22;10017;54.350;18.532;2022-07-06T14:20:45;19.00;70.10
19732;DHT22;10017;54.350;18.532;2022-07-06T14:23:18;19.20;40.30
19732;DHT22;10017;54.350;18.532;2022-07-06T14:25:53;19.40;29.70
19732;DHT22;10017;54.350;18.532;2022-07-06T14:28:27;19.30;22.20
19732;DHT22;10017;54.350;18.532;2022-07-06T14:30:59;19.10;22.50
19732;DHT22;10017;54.350;18.532;2022-07-06T14:33:34;19.20;14.40
19732;DHT22;10017;54.350;18.532;2022-07-06T14:36:08;19.30;20.60
19732;DHT22;10017;54.350;18.532;2022-07-06T14:38:40;19.40;9.60
19732;DHT22;10017;54.350;18.532;2022-07-06T14:41:12;19.50;5.30
19732;DHT22;10017;54.350;18.532;2022-07-06T14:43:47;19.70;1.00
19732;DHT22;10017;54.350;18.532;2022-07-06T14:46:19;20.00;1.00
19732;DHT22;10017;54.350;18.532;2022-07-06T14:48:54;20.10;1.00
19732;DHT22;10017;54.350;18.532;2022-07-06T14:51:26;20.20;1.00
19732;DHT22;10017;54.350;18.532;2022-07-06T14:53:59;20.30;1.00
19732;DHT22;10017;54.350;18.532;2022-07-06T14:56:31;20.20;1.00
19732;DHT22;10017;54.350;18.532;2022-07-06T14:59:05;20.10;1.00
19732;DHT22;10017;54.350;18.532;2022-07-06T15:01:55;20.10;1.00
19732;DHT22;10017;54.350;18.532;2022-07-06T15:04:27;20.20;1.00
19732;DHT22;10017;54.350;18.532;2022-07-06T15:07:00;20.10;1.00
19732;DHT22;10017;54.350;18.532;2022-07-06T15:09:32;19.80;1.00
19732;DHT22;10017;54.350;18.532;2022-07-06T15:12:06;19.40;1.00
19732;DHT22;10017;54.350;18.532;2022-07-06T15:14:40;19.20;1.00
19732;DHT22;10017;54.350;18.532;2022-07-06T15:17:14;18.90;1.00
19732;DHT22;10017;54.350;18.532;2022-07-06T15:19:48;18.50;1.00
19732;DHT22;10017;54.350;18.532;2022-07-06T15:22:24;18.40;1.00
19732;DHT22;10017;54.350;18.532;2022-07-06T15:24:56;18.20;1.00
19732;DHT22;10017;54.350;18.532;2022-07-06T15:27:30;18.20;1.00
19732;DHT22;10017;54.350;18.532;2022-07-06T15:30:05;18.30;1.00
19732;DHT22;10017;54.350;18.532;2022-07-06T15:32:58;18.50;1.00
19732;DHT22;10017;54.350;18.532;2022-07-06T15:35:34;18.60;1.00
19732;DHT22;10017;54.350;18.532;2022-07-06T15:38:06;18.50;1.00
19732;DHT22;10017;54.350;18.532;2022-07-06T15:40:44;18.50;1.00
19732;DHT22;10017;54.350;18.532;2022-07-06T15:43:39;18.80;1.00
19732;DHT22;10017;54.350;18.532;2022-07-06T15:46:12;18.90;1.00
19732;DHT22;10017;54.350;18.532;2022-07-06T15:48:44;18.90;1.00
19732;DHT22;10017;54.350;18.532;2022-07-06T15:51:16;18.90;1.00
19732;DHT22;10017;54.350;18.532;2022-07-06T15:53:51;18.80;1.00
19732;DHT22;10017;54.350;18.532;2022-07-06T15:56:23;18.80;1.00
19732;DHT22;10017;54.350;18.532;2022-07-06T15:58:55;18.60;1.00
19732;DHT22;10017;54.350;18.532;2022-07-06T16:01:30;18.60;1.00
19732;DHT22;10017;54.350;18.532;2022-07-06T16:04:04;18.50;1.00
19732;DHT22;10017;54.350;18.532;2022-07-06T16:06:36;18.50;1.00
19732;DHT22;10017;54.350;18.532;2022-07-06T16:09:29;18.50;1.00